Time;durP1;ratioP1;P1;durP2;ratioP2;P2;SDS_P1;SDS_P2;PMS_P1;PMS_P2;Temp;Humidity;BMP_temperature;BMP_pressure;BME280_temperature;BME280_humidity;BME280_pressure;Samples;Min_cycle;Max_cycle;Signal;HPM_P1;HPM_P2
2021/09/30 00:00:47;;;;;;;2.80;0.70;;;;;;;17.86;44.45;102232.81;5005783;28;20042;-61
2021/09/30 00:03:12;;;;;;;4.68;0.63;;;;;;;17.86;44.81;102241.78;5004211;28;20050;-60
2021/09/30 00:05:38;;;;;;;0.60;0.60;;;;;;;17.84;45.39;102241.06;5006486;28;20068;-60
2021/09/30 00:08:05;;;;;;;2.42;0.70;;;;;;;17.82;44.31;102243.06;5002682;28;20022;-60
2021/09/30 00:10:31;;;;;;;1.33;0.70;;;;;;;17.80;44.83;102253.19;5004234;28;20018;-60
2021/09/30 00:13:00;;;;;;;1.48;0.73;;;;;;;17.78;45.14;102244.31;5005223;28;20079;-61
2021/09/30 00:32:30;;;;;;;3.78;0.80;;;;;;;17.76;44.87;102262.59;4978541;28;20432;-60
2021/09/30 00:36:02;;;;;;;1.80;0.65;;;;;;;17.67;45.13;102258.00;4945720;29;20035;-60
2021/09/30 00:46:19;;;;;;;2.85;0.60;;;;;;;17.66;45.08;102266.28;4955323;29;20091;-61
2021/09/30 01:19:59;;;;;;;2.90;0.65;;;;;;;17.55;45.21;102275.41;5111878;28;20026;-59
2021/09/30 01:52:36;;;;;;;10.60;0.98;;;;;;;17.40;44.81;102283.03;5105277;28;20067;-59
2021/09/30 01:57:57;;;;;;;4.68;1.00;;;;;;;17.36;45.31;102288.88;5091971;28;20396;-59
2021/09/30 02:25:48;;;;;;;3.20;0.82;;;;;;;17.20;44.58;102302.03;5097979;28;20024;-59
2021/09/30 02:39:14;;;;;;;3.03;0.75;;;;;;;17.17;45.26;102303.16;5097673;28;20112;-60
2021/09/30 02:58:31;;;;;;;4.78;1.05;;;;;;;17.08;44.83;102311.25;5096959;28;20051;-59
2021/09/30 03:01:08;;;;;;;2.58;1.00;;;;;;;17.06;45.52;102310.50;5096317;28;20020;-59
2021/09/30 03:03:36;;;;;;;4.68;0.85;;;;;;;17.04;44.69;102307.09;5095944;28;20020;-59
2021/09/30 03:06:02;;;;;;;4.05;0.75;;;;;;;17.00;45.84;102306.50;5079811;28;20024;-59
2021/09/30 03:08:28;;;;;;;7.95;0.80;;;;;;;17.02;45.64;102307.25;5078204;28;20438;-60
2021/09/30 03:10:55;;;;;;;4.20;0.90;;;;;;;17.00;45.45;102311.09;5058838;28;20480;-59
2021/09/30 03:13:25;;;;;;;2.45;0.90;;;;;;;16.98;46.10;102311.19;5076731;28;20027;-59
2021/09/30 03:15:56;;;;;;;2.20;0.93;;;;;;;16.97;45.28;102311.34;5075274;28;20440;-59
2021/09/30 03:22:02;;;;;;;5.88;0.80;;;;;;;16.90;44.70;102316.44;5075672;28;20020;-60
2021/09/30 03:23:37;;;;;;;2.75;0.75;;;;;;;16.91;45.03;102322.69;5074823;28;20027;-60
2021/09/30 03:26:03;;;;;;;6.63;1.00;;;;;;;16.84;45.02;102316.97;5075525;28;20067;-59
2021/09/30 03:28:30;;;;;;;3.13;0.93;;;;;;;16.88;45.22;102323.84;5075287;28;20112;-59
2021/09/30 03:30:57;;;;;;;5.53;1.02;;;;;;;16.85;45.28;102319.53;5075810;28;20029;-60
2021/09/30 03:33:23;;;;;;;1.45;0.77;;;;;;;16.82;46.24;102318.94;5057526;28;20048;-59
2021/09/30 03:35:49;;;;;;;4.78;0.95;;;;;;;16.83;45.72;102326.91;5076437;28;20020;-59
2021/09/30 03:38:15;;;;;;;5.15;0.82;;;;;;;16.84;46.20;102325.94;5076022;28;20028;-59
2021/09/30 03:40:42;;;;;;;0.93;0.52;;;;;;;16.83;45.49;102324.22;5057652;28;20032;-60
2021/09/30 03:43:09;;;;;;;3.72;0.70;;;;;;;16.83;44.53;102331.50;5076021;28;20047;-60
2021/09/30 03:45:34;;;;;;;2.00;0.82;;;;;;;16.83;45.45;102331.50;5076062;28;20021;-59
2021/09/30 03:48:00;;;;;;;3.15;1.20;;;;;;;16.81;45.99;102337.03;5041631;28;20024;-59
2021/09/30 03:50:29;;;;;;;2.05;1.20;;;;;;;16.80;45.76;102335.34;5075428;28;20420;-59
2021/09/30 03:55:36;;;;;;;3.40;1.25;;;;;;;16.79;45.05;102332.75;5075756;28;20130;-59
2021/09/30 04:00:45;;;;;;;2.95;1.05;;;;;;;16.75;45.88;102334.84;5075957;28;20392;-59
2021/09/30 04:03:10;;;;;;;2.95;1.35;;;;;;;16.74;45.62;102337.69;5075539;28;20024;-59
2021/09/30 04:05:36;;;;;;;4.22;1.27;;;;;;;16.71;45.15;102333.41;5075631;28;20103;-59
2021/09/30 04:08:01;;;;;;;2.50;1.17;;;;;;;16.70;46.07;102334.38;5075255;28;20063;-60
2021/09/30 04:10:26;;;;;;;5.22;1.15;;;;;;;16.71;44.76;102336.13;5092103;28;20040;-60
2021/09/30 04:12:52;;;;;;;4.28;1.05;;;;;;;16.67;46.28;102329.25;5095469;28;20028;-59
2021/09/30 04:15:17;;;;;;;2.88;0.88;;;;;;;16.68;45.15;102338.22;5095926;28;20353;-60
2021/09/30 04:17:43;;;;;;;5.35;0.98;;;;;;;16.66;45.45;102343.78;5095650;28;20032;-59
2021/09/30 04:20:09;;;;;;;3.85;1.90;;;;;;;16.65;45.66;102341.19;5077961;28;20483;-59
2021/09/30 04:22:34;;;;;;;5.60;1.20;;;;;;;16.61;44.92;102337.03;5095882;28;20019;-59
2021/09/30 04:24:59;;;;;;;4.70;1.20;;;;;;;16.63;45.53;102349.44;5094628;28;20020;-60
2021/09/30 04:27:25;;;;;;;1.58;0.75;;;;;;;16.62;44.79;102349.56;5094542;28;20486;-60
2021/09/30 04:29:50;;;;;;;4.18;1.20;;;;;;;16.61;46.09;102355.97;5095407;28;20354;-59
2021/09/30 04:32:16;;;;;;;4.30;1.75;;;;;;;16.61;45.96;102354.09;5095366;28;20020;-59
2021/09/30 04:34:41;;;;;;;6.93;1.80;;;;;;;16.60;45.41;102357.81;5095815;28;20028;-60
2021/09/30 04:37:07;;;;;;;2.35;1.45;;;;;;;16.59;45.11;102361.50;5095238;28;20098;-59
2021/09/30 04:39:32;;;;;;;5.20;1.38;;;;;;;16.58;46.11;102369.78;5077192;28;20020;-59
2021/09/30 04:41:58;;;;;;;4.43;1.13;;;;;;;16.58;45.79;102370.59;5095416;28;20028;-59
2021/09/30 04:44:24;;;;;;;5.53;1.60;;;;;;;16.58;45.93;102370.59;5095142;28;20032;-59
2021/09/30 04:46:49;;;;;;;2.08;1.10;;;;;;;16.58;45.89;102373.31;5095117;28;20361;-59
2021/09/30 04:49:15;;;;;;;6.55;1.70;;;;;;;16.54;46.25;102374.56;5094817;28;20048;-59
2021/09/30 04:51:41;;;;;;;2.17;1.38;;;;;;;16.55;46.12;102375.44;5095148;28;20085;-60
2021/09/30 04:54:06;;;;;;;3.95;1.50;;;;;;;16.53;46.58;102378.25;5095536;28;20020;-60
2021/09/30 04:56:32;;;;;;;7.10;2.38;;;;;;;16.54;46.08;102377.28;5094902;28;20024;-60
2021/09/30 04:58:59;;;;;;;6.47;1.50;;;;;;;16.53;45.70;102377.34;5094442;28;20020;-60
2021/09/30 05:01:24;;;;;;;4.20;1.75;;;;;;;16.50;45.71;102370.38;5094266;28;20480;-60
2021/09/30 05:03:49;;;;;;;6.68;1.85;;;;;;;16.54;46.80;102385.41;5094565;28;20028;-59
2021/09/30 05:06:15;;;;;;;4.18;1.95;;;;;;;16.53;46.44;102383.66;5095146;28;20028;-59
2021/09/30 05:08:44;;;;;;;7.18;1.70;;;;;;;16.52;46.75;102379.22;5094784;28;20111;-59
2021/09/30 05:11:09;;;;;;;10.30;2.40;;;;;;;16.54;45.19;102384.53;5095097;28;20109;-59
2021/09/30 05:13:56;;;;;;;7.53;1.90;;;;;;;16.55;45.92;102386.25;5095016;28;20051;-59
2021/09/30 05:16:22;;;;;;;9.02;2.78;;;;;;;16.55;45.97;102381.72;5095086;28;20020;-59
2021/09/30 05:18:49;;;;;;;5.85;2.40;;;;;;;16.55;45.89;102389.84;5094915;28;20157;-59
2021/09/30 05:21:15;;;;;;;6.45;2.85;;;;;;;16.51;45.46;102380.22;5095120;28;20549;-59
2021/09/30 05:23:41;;;;;;;7.70;2.00;;;;;;;16.52;45.52;102386.47;5094961;28;20108;-59
2021/09/30 05:26:06;;;;;;;4.93;2.20;;;;;;;16.52;46.46;102391.91;5094791;28;20380;-59
2021/09/30 05:28:32;;;;;;;4.90;2.20;;;;;;;16.50;45.63;102388.47;5095044;28;20031;-60
2021/09/30 05:30:57;;;;;;;5.88;2.17;;;;;;;16.50;45.46;102388.47;5094960;28;20028;-59
2021/09/30 05:33:24;;;;;;;8.50;2.13;;;;;;;16.47;45.70;102394.13;5094473;28;20106;-59
2021/09/30 05:35:49;;;;;;;3.10;1.45;;;;;;;16.47;46.77;102399.53;5094599;28;20020;-60
2021/09/30 05:38:15;;;;;;;7.10;2.63;;;;;;;16.47;46.67;102402.25;5094843;28;20494;-59
2021/09/30 05:40:41;;;;;;;6.88;1.52;;;;;;;16.36;45.03;102386.91;5094391;28;20020;-59
2021/09/30 05:43:10;;;;;;;2.65;1.60;;;;;;;16.50;45.66;102404.69;5076643;28;20055;-60
2021/09/30 05:45:41;;;;;;;3.72;1.95;;;;;;;16.49;46.77;102403.84;5094323;28;20020;-60
2021/09/30 05:48:07;;;;;;;7.30;1.45;;;;;;;16.51;45.83;102403.69;5094708;28;20389;-60
2021/09/30 05:50:33;;;;;;;8.38;1.85;;;;;;;16.50;46.21;102404.69;5094315;28;20031;-59
2021/09/30 05:52:58;;;;;;;3.30;1.75;;;;;;;16.55;45.02;102408.78;5094409;28;20078;-60
2021/09/30 05:55:23;;;;;;;2.85;1.70;;;;;;;16.56;45.18;102404.19;5094421;28;20100;-60
2021/09/30 05:57:49;;;;;;;5.40;1.80;;;;;;;16.57;44.98;102405.91;5098795;28;20028;-59
2021/09/30 06:11:03;;;;;;;13.98;1.73;;;;;;;16.74;45.85;102392.69;5078997;28;20060;-59
2021/09/30 06:15:55;;;;;;;5.97;1.67;;;;;;;16.82;46.34;102406.41;5061203;28;20028;-60
2021/09/30 06:18:21;;;;;;;5.10;1.73;;;;;;;16.87;45.71;102398.75;5077401;28;20024;-59
2021/09/30 06:20:46;;;;;;;7.68;1.73;;;;;;;16.91;46.10;102395.78;5077621;28;20102;-59
2021/09/30 06:23:12;;;;;;;3.92;1.80;;;;;;;16.93;46.36;102396.50;5077394;28;20135;-60
2021/09/30 06:25:37;;;;;;;6.53;2.67;;;;;;;16.96;45.05;102398.97;5077230;28;20040;-60
2021/09/30 06:28:03;;;;;;;5.68;1.67;;;;;;;17.00;46.30;102392.31;5077562;28;20094;-60
2021/09/30 06:30:29;;;;;;;5.40;1.48;;;;;;;17.04;45.44;102393.72;5077116;28;20032;-60
2021/09/30 06:32:58;;;;;;;3.17;1.13;;;;;;;17.11;45.64;102400.34;5077367;28;20028;-60
2021/09/30 06:35:23;;;;;;;5.82;2.20;;;;;;;17.21;46.19;102401.25;5077240;28;20028;-60
2021/09/30 06:37:50;;;;;;;3.97;1.45;;;;;;;17.30;45.69;102384.22;5076956;28;20083;-59
2021/09/30 06:40:15;;;;;;;4.90;1.02;;;;;;;17.34;45.15;102386.50;5077596;28;20017;-60
2021/09/30 06:42:40;;;;;;;3.83;1.58;;;;;;;17.57;45.23;102383.63;5077864;28;20029;-60
2021/09/30 06:45:06;;;;;;;5.20;1.50;;;;;;;17.71;45.18;102378.72;5077861;28;20111;-60
2021/09/30 06:47:36;;;;;;;4.40;1.25;;;;;;;17.80;44.52;102386.03;5077265;28;20029;-60
2021/09/30 06:50:03;;;;;;;3.15;1.48;;;;;;;17.89;45.11;102387.91;5069129;28;20020;-60
2021/09/30 06:52:29;;;;;;;8.13;1.35;;;;;;;17.96;45.21;102390.91;5077330;28;20028;-60
2021/09/30 06:54:54;;;;;;;4.43;1.83;;;;;;;17.98;44.43;102387.06;5077097;28;20465;-60
2021/09/30 06:57:21;;;;;;;4.85;1.60;;;;;;;18.15;45.40;102396.38;5076712;28;20031;-60
2021/09/30 06:59:47;;;;;;;3.15;1.85;;;;;;;18.31;44.37;102398.56;5077538;28;20025;-60
2021/09/30 07:02:14;;;;;;;4.30;1.80;;;;;;;18.50;44.25;102399.47;5077142;28;20472;-60
2021/09/30 07:04:40;;;;;;;4.88;1.55;;;;;;;18.63;44.12;102404.59;5059698;28;20028;-60
2021/09/30 07:07:06;;;;;;;3.17;1.95;;;;;;;18.76;43.61;102399.72;5078088;28;20071;-60
2021/09/30 07:09:32;;;;;;;8.35;1.48;;;;;;;18.83;44.83;102395.44;5084528;28;20048;-60
2021/09/30 07:11:59;;;;;;;5.47;1.60;;;;;;;18.84;44.23;102402.59;5098202;28;20364;-60
2021/09/30 07:14:24;;;;;;;7.35;1.55;;;;;;;18.90;44.09;102399.28;5098374;28;20024;-61
2021/09/30 07:16:50;;;;;;;5.07;1.80;;;;;;;18.94;43.67;102398.00;5098380;28;20030;-60
2021/09/30 07:19:15;;;;;;;4.93;1.77;;;;;;;19.01;43.88;102410.00;5097187;28;20020;-60
2021/09/30 07:21:41;;;;;;;6.97;1.88;;;;;;;19.07;43.82;102392.25;5080507;28;20074;-60
2021/09/30 07:24:06;;;;;;;4.50;1.55;;;;;;;19.39;43.67;102410.97;5097267;28;20030;-60
2021/09/30 07:26:32;;;;;;;6.10;1.48;;;;;;;19.52;43.34;102403.31;5097785;28;20107;-60
2021/09/30 07:28:57;;;;;;;4.38;1.40;;;;;;;19.68;43.08;102409.00;5097348;28;20024;-61
2021/09/30 07:31:22;;;;;;;3.50;1.77;;;;;;;19.88;42.86;102399.72;5079350;28;20028;-61
2021/09/30 07:33:48;;;;;;;8.63;1.63;;;;;;;20.11;42.44;102409.19;5097327;28;20070;-60
2021/09/30 07:36:13;;;;;;;7.03;1.50;;;;;;;20.32;43.15;102398.91;5097175;28;20102;-60
2021/09/30 07:38:40;;;;;;;12.05;2.60;;;;;;;20.55;42.18;102401.16;5078339;28;20488;-60
2021/09/30 07:41:06;;;;;;;5.80;1.50;;;;;;;20.68;42.61;102393.47;5083439;28;20032;-60
2021/09/30 07:43:31;;;;;;;8.90;1.92;;;;;;;20.80;43.01;102400.38;5067571;28;20020;-60
2021/09/30 07:45:57;;;;;;;4.35;1.08;;;;;;;20.79;42.47;102391.38;5076858;28;20060;-60
2021/09/30 07:48:22;;;;;;;5.07;1.48;;;;;;;20.76;42.26;102396.28;5077052;28;20036;-60
2021/09/30 07:50:48;;;;;;;5.15;1.17;;;;;;;20.82;42.57;102390.19;5076500;28;20384;-60
2021/09/30 07:53:14;;;;;;;5.15;1.15;;;;;;;20.95;42.08;102409.72;5076636;28;20178;-60
2021/09/30 07:55:43;;;;;;;7.25;1.85;;;;;;;21.15;41.20;102408.53;5058871;28;20028;-61
2021/09/30 07:58:09;;;;;;;3.30;1.33;;;;;;;21.37;40.98;102413.47;5057967;28;20516;-60
2021/09/30 08:00:39;;;;;;;5.57;1.63;;;;;;;21.41;41.13;102409.38;5075574;28;20094;-60
2021/09/30 08:03:05;;;;;;;6.30;1.45;;;;;;;21.65;41.43;102405.09;5075158;28;20028;-60
2021/09/30 08:05:35;;;;;;;5.20;1.70;;;;;;;21.81;40.63;102410.63;5075076;28;20457;-60
2021/09/30 08:08:02;;;;;;;7.03;1.35;;;;;;;21.99;40.70;102408.69;5057450;28;20103;-61
2021/09/30 08:10:28;;;;;;;6.05;1.40;;;;;;;21.98;41.13;102402.38;5089416;28;20137;-62
2021/09/30 08:12:53;;;;;;;4.93;1.45;;;;;;;21.92;42.18;102411.22;5094294;28;20051;-61
2021/09/30 08:15:18;;;;;;;6.75;1.63;;;;;;;22.20;41.42;102410.97;5094558;28;20031;-62
2021/09/30 08:17:44;;;;;;;5.55;1.45;;;;;;;22.51;40.15;102403.88;5094688;28;20028;-62
2021/09/30 08:20:10;;;;;;;2.85;1.38;;;;;;;22.75;39.72;102414.00;5093979;28;20024;-61
2021/09/30 08:22:35;;;;;;;6.85;1.10;;;;;;;22.97;39.88;102421.53;5094107;28;20039;-62
2021/09/30 08:25:01;;;;;;;7.18;1.42;;;;;;;23.15;39.45;102413.97;5094207;28;20031;-62
2021/09/30 08:27:26;;;;;;;5.20;1.50;;;;;;;23.28;39.83;102411.59;5094116;28;20032;-62
2021/09/30 08:29:51;;;;;;;4.35;1.20;;;;;;;23.44;40.10;102414.31;5094281;28;20035;-62
2021/09/30 08:32:17;;;;;;;3.83;1.67;;;;;;;23.60;39.73;102406.06;5094518;28;20052;-63
2021/09/30 08:34:42;;;;;;;6.45;1.13;;;;;;;23.81;38.55;102416.44;5094813;28;20044;-62
2021/09/30 08:37:10;;;;;;;7.10;1.33;;;;;;;23.94;38.77;102427.66;5094359;28;20032;-62
2021/09/30 08:39:35;;;;;;;4.55;1.33;;;;;;;24.08;38.24;102423.31;5094251;28;20103;-62
2021/09/30 08:42:03;;;;;;;4.68;1.08;;;;;;;24.23;38.17;102436.09;5094249;28;20059;-62
2021/09/30 08:44:30;;;;;;;6.75;1.20;;;;;;;24.34;38.46;102423.91;5094612;28;20028;-63
2021/09/30 08:46:55;;;;;;;4.95;1.30;;;;;;;24.51;38.00;102432.88;5094295;28;20037;-62
2021/09/30 08:49:21;;;;;;;4.65;0.90;;;;;;;24.68;38.04;102431.75;5093878;28;20030;-62
2021/09/30 08:51:46;;;;;;;3.55;1.55;;;;;;;24.75;37.83;102428.06;5092712;28;20027;-62
2021/09/30 08:54:12;;;;;;;6.57;1.25;;;;;;;24.99;37.72;102415.22;5093675;28;20024;-62
2021/09/30 08:56:37;;;;;;;5.78;1.00;;;;;;;25.14;37.43;102422.47;5093792;28;20111;-62
2021/09/30 08:59:14;;;;;;;7.47;1.33;;;;;;;24.96;37.29;102419.19;5093759;28;20016;-61
2021/09/30 09:01:39;;;;;;;5.95;0.80;;;;;;;24.85;37.41;102417.72;5093777;28;20499;-62
2021/09/30 09:04:16;;;;;;;3.42;1.00;;;;;;;24.81;37.20;102424.63;5093811;28;20032;-62
2021/09/30 09:06:45;;;;;;;4.05;1.25;;;;;;;24.66;37.42;102425.56;5093596;28;20020;-62
2021/09/30 09:09:27;;;;;;;4.38;1.10;;;;;;;24.74;37.69;102425.50;5093230;28;20515;-63
2021/09/30 09:11:53;;;;;;;5.53;1.23;;;;;;;24.98;37.39;102421.75;5093803;28;20023;-62
2021/09/30 09:14:29;;;;;;;6.22;1.55;;;;;;;24.80;37.35;102422.91;5075299;28;20035;-63
2021/09/30 09:17:05;;;;;;;3.53;1.38;;;;;;;24.70;37.75;102425.03;5093420;28;20432;-62
2021/09/30 09:19:37;;;;;;;4.63;0.98;;;;;;;24.56;37.91;102427.69;5093398;28;20095;-62
2021/09/30 09:22:18;;;;;;;5.43;0.90;;;;;;;24.81;37.35;102421.03;5093522;28;20034;-63
2021/09/30 09:25:13;;;;;;;3.72;0.95;;;;;;;25.11;36.99;102421.97;5093085;28;20036;-62
2021/09/30 09:27:53;;;;;;;6.70;0.85;;;;;;;25.46;36.06;102432.28;5093330;28;20035;-62
2021/09/30 09:30:35;;;;;;;6.40;1.17;;;;;;;26.35;35.34;102429.31;5093277;28;20024;-63
2021/09/30 09:33:08;;;;;;;4.20;0.80;;;;;;;26.88;35.12;102416.16;5097393;28;20031;-63
2021/09/30 09:35:50;;;;;;;8.70;0.85;;;;;;;26.84;34.44;102412.94;5097213;28;20089;-63
2021/09/30 09:38:16;;;;;;;7.22;1.10;;;;;;;26.94;35.07;102399.69;5097357;28;20036;-62
2021/09/30 09:40:42;;;;;;;2.53;1.13;;;;;;;27.07;35.14;102402.56;5097269;28;20379;-62
2021/09/30 09:43:26;;;;;;;2.83;0.60;;;;;;;26.96;34.74;102405.88;5097299;28;20032;-63
2021/09/30 09:45:51;;;;;;;4.40;1.17;;;;;;;27.11;34.86;102403.88;5097198;28;20099;-63
2021/09/30 09:48:17;;;;;;;5.75;1.52;;;;;;;27.46;34.31;102409.44;5097417;28;20118;-62
2021/09/30 09:50:42;;;;;;;5.75;0.82;;;;;;;27.90;33.89;102398.03;5096970;28;20031;-62
2021/09/30 09:53:07;;;;;;;6.63;0.90;;;;;;;28.58;33.49;102386.00;5097238;28;20172;-62
2021/09/30 09:55:38;;;;;;;7.25;0.90;;;;;;;29.15;32.69;102389.00;5078775;28;20028;-59
2021/09/30 09:58:10;;;;;;;3.67;1.25;;;;;;;29.84;32.14;102388.50;5079504;28;20023;-60
2021/09/30 10:00:38;;;;;;;7.35;1.17;;;;;;;30.10;31.70;102377.31;5097084;28;20157;-60
2021/09/30 10:03:20;;;;;;;2.63;0.60;;;;;;;30.60;31.37;102377.50;5096922;28;20043;-60
2021/09/30 10:05:46;;;;;;;2.30;0.40;;;;;;;30.12;31.94;102369.69;5095804;28;20391;-60
2021/09/30 10:08:13;;;;;;;3.72;1.45;;;;;;;29.76;31.99;102375.72;5090058;28;20062;-60
2021/09/30 10:10:38;;;;;;;4.70;0.50;;;;;;;29.45;32.81;102368.16;5096235;28;20052;-60
2021/09/30 10:13:04;;;;;;;2.40;0.88;;;;;;;29.18;32.16;102377.53;5078855;28;20027;-60
2021/09/30 10:15:31;;;;;;;2.75;0.50;;;;;;;29.00;32.78;102373.75;5096613;28;20383;-60
2021/09/30 10:17:57;;;;;;;1.75;0.75;;;;;;;28.93;31.56;102367.38;5096404;28;20031;-60
2021/09/30 10:20:22;;;;;;;2.58;0.50;;;;;;;28.63;31.74;102366.94;5096705;28;20198;-60
2021/09/30 10:22:54;;;;;;;2.17;0.40;;;;;;;28.42;32.38;102361.59;5096420;28;20066;-59
2021/09/30 10:25:20;;;;;;;5.13;0.50;;;;;;;28.29;32.08;102368.75;5096528;28;20350;-61
2021/09/30 10:27:55;;;;;;;2.25;0.50;;;;;;;28.22;32.83;102370.66;5096373;28;20402;-60
2021/09/30 10:30:38;;;;;;;6.25;0.80;;;;;;;28.14;32.68;102368.06;5078214;28;20375;-62
2021/09/30 10:33:07;;;;;;;1.38;0.55;;;;;;;28.15;32.03;102363.41;5095901;28;20043;-63
2021/09/30 10:35:43;;;;;;;1.70;0.50;;;;;;;27.98;32.04;102360.13;5095951;28;20424;-62
2021/09/30 10:38:22;;;;;;;2.33;0.68;;;;;;;27.86;31.74;102352.69;5096128;28;20070;-63
2021/09/30 10:41:07;;;;;;;3.10;0.50;;;;;;;28.31;32.25;102346.47;5096292;28;20464;-64
2021/09/30 10:43:47;;;;;;;7.28;0.80;;;;;;;28.33;31.59;102340.78;5095624;28;20471;-61
2021/09/30 10:46:21;;;;;;;3.28;0.70;;;;;;;28.82;31.61;102339.34;5096268;28;20392;-61
2021/09/30 10:48:47;;;;;;;4.25;0.50;;;;;;;29.06;31.31;102340.63;5096156;28;20423;-64
2021/09/30 10:51:12;;;;;;;1.42;0.40;;;;;;;29.61;30.70;102333.72;5096138;28;20038;-62
2021/09/30 10:53:47;;;;;;;7.15;1.88;;;;;;;30.67;29.49;102336.78;5078218;28;20471;-62
2021/09/30 10:56:26;;;;;;;3.35;0.60;;;;;;;31.25;29.10;102340.94;5095707;28;20098;-63
2021/09/30 10:58:52;;;;;;;4.18;0.82;;;;;;;30.75;29.95;102331.81;5096057;28;20394;-60
2021/09/30 11:01:17;;;;;;;4.88;1.08;;;;;;;30.10;30.09;102333.09;5095808;28;20028;-62
2021/09/30 11:04:04;;;;;;;4.93;0.63;;;;;;;29.51;30.40;102338.84;5095639;28;20028;-61
2021/09/30 11:06:30;;;;;;;3.97;0.80;;;;;;;28.95;30.25;102332.97;5077658;28;20024;-62
2021/09/30 11:09:21;;;;;;;4.03;0.68;;;;;;;28.53;31.22;102325.13;5095476;28;20081;-62
2021/09/30 11:11:51;;;;;;;7.25;0.63;;;;;;;28.09;31.26;102326.50;5095583;28;20056;-61
2021/09/30 11:14:22;;;;;;;2.63;0.30;;;;;;;27.85;30.62;102328.94;5077906;28;20024;-60
2021/09/30 11:16:52;;;;;;;5.13;0.85;;;;;;;27.75;30.89;102338.44;5095713;28;20528;-62
2021/09/30 11:19:29;;;;;;;6.50;0.80;;;;;;;27.63;31.64;102333.72;5095583;28;20395;-61
2021/09/30 11:21:57;;;;;;;4.55;0.55;;;;;;;27.54;31.92;102333.03;5095180;28;20031;-62
2021/09/30 11:24:34;;;;;;;2.80;0.75;;;;;;;27.39;31.85;102328.66;5095312;28;20099;-62
2021/09/30 11:26:59;;;;;;;3.55;0.50;;;;;;;27.34;31.88;102325.69;5095302;28;20028;-61
2021/09/30 11:29:25;;;;;;;6.50;0.70;;;;;;;27.15;31.75;102330.03;5095190;28;20024;-62
2021/09/30 11:31:53;;;;;;;4.50;0.57;;;;;;;27.40;31.05;102324.88;5094980;28;20123;-62
2021/09/30 11:34:21;;;;;;;3.20;0.82;;;;;;;27.55;31.47;102329.25;5076871;28;20020;-62
2021/09/30 11:36:47;;;;;;;2.38;0.80;;;;;;;27.58;31.86;102317.78;5094962;28;20016;-57
2021/09/30 11:39:12;;;;;;;4.00;1.20;;;;;;;27.51;31.86;102321.59;5095165;28;20020;-55
2021/09/30 11:41:40;;;;;;;2.05;0.50;;;;;;;27.36;32.03;102323.59;5095010;28;20056;-57
2021/09/30 11:44:06;;;;;;;3.20;1.23;;;;;;;27.16;32.33;102318.78;5095200;28;20019;-56
2021/09/30 11:46:34;;;;;;;18.40;2.13;;;;;;;27.01;31.63;102314.47;5094865;28;20035;-56
2021/09/30 11:49:01;;;;;;;3.10;0.68;;;;;;;26.89;31.73;102319.66;5094686;28;20072;-55
2021/09/30 11:51:34;;;;;;;6.55;1.08;;;;;;;26.63;32.09;102315.84;5094900;28;20057;-56
2021/09/30 11:54:01;;;;;;;2.88;0.90;;;;;;;26.43;32.42;102316.50;5087267;28;20028;-55
2021/09/30 11:56:27;;;;;;;4.93;0.60;;;;;;;26.26;32.51;102308.72;5076123;28;20050;-62
2021/09/30 11:59:02;;;;;;;3.13;0.50;;;;;;;26.04;32.62;102303.19;5074491;28;20029;-62
2021/09/30 12:01:41;;;;;;;1.23;0.40;;;;;;;25.87;32.75;102309.97;5056340;28;20032;-62
2021/09/30 12:04:07;;;;;;;4.53;0.68;;;;;;;25.72;32.77;102309.13;5074605;28;20032;-62
2021/09/30 12:06:50;;;;;;;6.22;0.50;;;;;;;25.57;32.66;102297.34;5074336;28;20028;-61
2021/09/30 12:09:16;;;;;;;5.80;0.77;;;;;;;25.46;33.25;102304.13;5074194;28;20520;-61
2021/09/30 12:11:59;;;;;;;0.77;0.77;;;;;;;25.34;33.44;102313.03;5074202;28;20024;-64
2021/09/30 12:14:34;;;;;;;;;;;;;;;25.23;33.71;102310.75;5057076;28;20028;-63
2021/09/30 12:17:01;;;;;;;2.13;0.63;;;;;;;25.06;33.94;102301.00;5056554;28;19938;-63
2021/09/30 12:19:37;;;;;;;3.65;0.47;;;;;;;24.93;33.57;102309.03;5074251;28;20013;-63
2021/09/30 12:22:09;;;;;;;1.27;0.47;;;;;;;24.75;33.60;102292.91;5073021;28;20028;-63
2021/09/30 12:24:35;;;;;;;3.30;0.75;;;;;;;24.76;33.75;102303.66;5073999;28;20107;-63
2021/09/30 12:27:00;;;;;;;2.80;0.57;;;;;;;24.69;33.34;102297.22;5039477;28;20417;-63
2021/09/30 12:29:25;;;;;;;2.85;0.70;;;;;;;24.64;33.60;102302.44;5056244;28;20047;-63
2021/09/30 12:32:06;;;;;;;5.03;0.60;;;;;;;24.58;33.86;102292.19;5072692;28;20075;-64
2021/09/30 12:34:31;;;;;;;3.97;0.68;;;;;;;24.53;34.02;102291.91;5055922;28;20032;-63
2021/09/30 12:36:57;;;;;;;2.05;0.30;;;;;;;24.45;34.43;102291.97;5072554;28;20029;-65
2021/09/30 12:39:24;;;;;;;4.55;0.50;;;;;;;24.38;34.50;102284.66;5072712;28;20016;-65
2021/09/30 12:41:50;;;;;;;2.67;0.30;;;;;;;24.26;34.32;102289.75;5073603;28;20032;-64
2021/09/30 12:44:16;;;;;;;3.97;1.02;;;;;;;24.20;33.72;102282.25;5055848;28;20031;-64
2021/09/30 12:46:43;;;;;;;6.60;0.35;;;;;;;24.12;33.83;102282.31;5051047;28;20388;-65
2021/09/30 12:49:08;;;;;;;2.17;0.57;;;;;;;24.05;34.00;102289.50;5071078;28;20094;-65
2021/09/30 12:51:33;;;;;;;3.00;0.50;;;;;;;23.98;34.31;102288.53;5073257;28;20467;-64
2021/09/30 12:53:59;;;;;;;2.70;0.85;;;;;;;23.90;34.44;102281.22;5073181;28;20379;-64
2021/09/30 12:56:29;;;;;;;5.07;0.50;;;;;;;23.83;34.38;102280.25;5073323;28;20048;-64
2021/09/30 12:58:54;;;;;;;0.77;0.40;;;;;;;23.72;34.48;102270.56;5035650;28;20028;-64
2021/09/30 13:01:33;;;;;;;2.25;0.35;;;;;;;23.67;34.84;102267.50;5052279;28;20044;-64
2021/09/30 13:04:24;;;;;;;2.50;0.70;;;;;;;23.63;34.23;102266.16;5053579;28;20032;-65
2021/09/30 13:07:05;;;;;;;2.80;0.60;;;;;;;23.65;34.61;102261.34;5053123;28;20021;-64
2021/09/30 13:09:39;;;;;;;3.90;0.50;;;;;;;23.66;34.36;102254.84;5058604;28;20052;-65
2021/09/30 13:12:10;;;;;;;3.50;0.73;;;;;;;23.70;34.63;102255.38;5073243;28;20067;-65
2021/09/30 13:14:45;;;;;;;7.53;0.90;;;;;;;23.75;34.81;102259.25;5073247;28;20099;-64
2021/09/30 13:17:18;;;;;;;1.80;0.40;;;;;;;23.81;34.58;102251.34;5073121;28;20029;-64
2021/09/30 13:19:58;;;;;;;1.23;0.50;;;;;;;23.78;35.17;102247.09;5072936;28;20025;-65
2021/09/30 13:22:34;;;;;;;1.75;0.30;;;;;;;23.86;35.40;102251.66;5073101;28;20055;-65
2021/09/30 13:25:11;;;;;;;5.78;1.33;;;;;;;23.89;34.39;102238.47;5072880;28;20146;-64
2021/09/30 13:27:38;;;;;;;2.80;0.40;;;;;;;23.95;34.28;102240.47;5072894;28;20361;-64
2021/09/30 13:30:09;;;;;;;1.50;0.50;;;;;;;23.99;34.96;102227.25;5072785;28;20058;-64
2021/09/30 13:32:36;;;;;;;5.30;0.60;;;;;;;24.09;35.14;102219.66;5072768;28;20020;-64
2021/09/30 13:35:02;;;;;;;3.63;0.50;;;;;;;24.19;35.17;102228.50;5073026;28;20496;-64
2021/09/30 13:37:28;;;;;;;5.53;0.70;;;;;;;24.20;34.82;102216.53;5073050;28;20056;-63
2021/09/30 13:39:59;;;;;;;3.83;0.50;;;;;;;24.23;35.06;102216.16;5072098;28;20434;-65
2021/09/30 13:42:27;;;;;;;5.65;0.50;;;;;;;24.20;34.41;102208.31;5073017;28;20031;-65
2021/09/30 13:44:54;;;;;;;4.22;0.50;;;;;;;24.17;35.22;102208.69;5073165;28;20115;-64
2021/09/30 13:47:19;;;;;;;6.70;0.60;;;;;;;24.13;35.26;102213.66;5072996;28;20044;-65
2021/09/30 13:49:45;;;;;;;5.30;0.60;;;;;;;24.07;34.99;102214.34;5072992;28;20021;-64
2021/09/30 13:52:10;;;;;;;2.53;0.63;;;;;;;24.01;35.38;102204.13;5073361;28;20028;-64
2021/09/30 13:54:36;;;;;;;2.47;0.70;;;;;;;23.98;35.34;102199.03;5073191;28;20484;-64
2021/09/30 13:57:01;;;;;;;3.22;1.05;;;;;;;23.92;35.41;102198.94;5073022;28;20384;-64
2021/09/30 13:59:27;;;;;;;5.00;1.00;;;;;;;23.87;35.36;102206.84;5072877;28;20024;-64
2021/09/30 14:01:52;;;;;;;2.78;0.80;;;;;;;23.86;34.69;102202.38;5071954;28;20039;-64
2021/09/30 14:04:17;;;;;;;2.58;0.80;;;;;;;23.83;35.47;102205.47;5073137;28;20021;-64
2021/09/30 14:06:43;;;;;;;2.42;0.73;;;;;;;23.78;35.01;102184.97;5073145;28;20112;-64
2021/09/30 14:09:09;;;;;;;2.10;0.70;;;;;;;23.79;34.71;102174.88;5068831;28;20383;-64
2021/09/30 14:11:34;;;;;;;2.50;0.55;;;;;;;23.80;35.45;102173.00;5034778;28;20039;-63
2021/09/30 14:14:00;;;;;;;4.88;1.38;;;;;;;23.76;35.62;102173.38;5052701;28;20028;-64